This is the latest recevied weather packets stored in our database for station/object N4AN. If no packets are shown the sender has not sent any weather packets the latest 10 day(s).
| Time | Temp. | Humidity | Pressure | Rain* | Wind** | Luminosity | Snow |
|---|---|---|---|---|---|---|---|
| 1787566680 | 30.56° C | 72% | 1010.4 hPa | 0 mm | - | - | - |
| 1787566569 | 30.56° C | 72% | 1010.4 hPa | 0 mm | - | - | - |
| 1787566500 | 30.56° C | 72% | 1010.4 hPa | 0 mm | - | - | - |
| 1787566215 | 30.56° C | 75% | 1011.4 hPa | 0 mm | - | - | - |
| 1787566199 | 30.56° C | 73% | 1010.3 hPa | 0 mm | - | - | - |
| 1787565973 | 30.56° C | 72% | 1010.4 hPa | 0 mm | - | - | - |
| 1787565899 | 30.56° C | 72% | 1010.4 hPa | 0 mm | - | - | - |
| 1787565599 | 31.11° C | 72% | 1010.2 hPa | 0 mm | - | - | - |
| 1787565298 | 31.11° C | 72% | 1010.2 hPa | 0 mm | - | - | - |
| 1787564998 | 31.11° C | 72% | 1010.3 hPa | 0 mm | - | - | - |
| 1787564698 | 31.11° C | 74% | 1010.2 hPa | 0 mm | - | - | - |
| 1787564398 | 30.56° C | 74% | 1010.3 hPa | 0 mm | - | - | - |
| 1787564094 | 30.56° C | 74% | 1010.3 hPa | 0 mm | - | - | - |
| 1787563898 | 30.56° C | 75% | 1010.2 hPa | 0 mm | - | - | - |
| 1787563794 | 30.56° C | 75% | 1010.2 hPa | 0 mm | - | - | - |
| 1787563494 | 29.44° C | 76% | 1010.2 hPa | 0 mm | - | - | - |
| 1787563193 | 30° C | 75% | 1010.2 hPa | 0 mm | - | - | - |
| 1787562893 | 29.44° C | 77% | 1010.3 hPa | 0 mm | - | - | - |
| 1787562593 | 30° C | 76% | 1010.2 hPa | 0 mm | - | - | - |
| 1787562292 | 29.44° C | 76% | 1010.3 hPa | 0 mm | - | - | - |
| 1787561991 | 30° C | 76% | 1010.4 hPa | 0 mm | - | - | - |
| 1787561691 | 29.44° C | 76% | 1010.3 hPa | 0 mm | - | - | - |
| 1787561091 | 30° C | 75% | 1010.5 hPa | 0 mm | - | - | - |
| 1787560790 | 29.44° C | 77% | 1010.4 hPa | 0 mm | - | - | - |
| 1787560488 | 29.44° C | 77% | 1010.4 hPa | 0 mm | - | - | - |
* Rain latest hour (hover to see other rain measurements)
** Current wind speed in m/s (hover to see current wind gust speed)